Benidorm, Spain
Current Conditions -  °F | °C
As of 1:00 PM on Tuesday 27 Jan 2015 (Local Time) from LEAL Reporting Station
Clear Clear  
Wind Chill: 61°   Ceiling: Unl
Heat Index: 61°   Visibility: 6mi
Dew Point: 32°   Wind: 1mph
Humidity: 34%   Direction: NA
Pressure: 30.27"   Gusts: NA
Location:  38.54°N, 0.13°W
Report Text: LEAL 271200Z VRB01KT CAVOK 16/M00 Q1025 NOSIG
Loading
Personal Weather Stations






























Interactive Weather Map New forecast layout! Learn more

10-Day Weather Forecast

Advertisements
Track Severe Weather on mobile